sensor_id;sensor_type;location;lat;lon;timestamp;P1;durP1;ratioP1;P2;durP2;ratioP2
27895;SDS011;15241;48.374;10.876;2022-08-19T00:02:21;4.03;;;3.42;;
27895;SDS011;15241;48.374;10.876;2022-08-19T00:07:20;3.72;;;3.42;;
27895;SDS011;15241;48.374;10.876;2022-08-19T00:12:19;3.40;;;3.10;;
27895;SDS011;15241;48.374;10.876;2022-08-19T00:17:20;3.10;;;2.80;;
27895;SDS011;15241;48.374;10.876;2022-08-19T00:22:19;2.87;;;2.58;;
27895;SDS011;15241;48.374;10.876;2022-08-19T00:27:18;1.80;;;1.70;;
27895;SDS011;15241;48.374;10.876;2022-08-19T00:32:17;2.22;;;1.65;;
27895;SDS011;15241;48.374;10.876;2022-08-19T00:37:16;1.30;;;1.15;;
27895;SDS011;15241;48.374;10.876;2022-08-19T00:42:15;1.17;;;1.07;;
27895;SDS011;15241;48.374;10.876;2022-08-19T00:47:15;1.80;;;1.20;;
27895;SDS011;15241;48.374;10.876;2022-08-19T00:52:14;2.58;;;1.50;;
27895;SDS011;15241;48.374;10.876;2022-08-19T00:57:16;1.98;;;1.37;;
27895;SDS011;15241;48.374;10.876;2022-08-19T01:02:17;2.67;;;1.20;;
27895;SDS011;15241;48.374;10.876;2022-08-19T01:07:16;2.12;;;1.52;;
27895;SDS011;15241;48.374;10.876;2022-08-19T01:12:16;1.65;;;1.55;;
27895;SDS011;15241;48.374;10.876;2022-08-19T01:17:15;2.62;;;2.27;;
27895;SDS011;15241;48.374;10.876;2022-08-19T01:22:16;2.22;;;2.00;;
27895;SDS011;15241;48.374;10.876;2022-08-19T01:27:18;2.60;;;2.40;;
27895;SDS011;15241;48.374;10.876;2022-08-19T01:32:17;2.85;;;2.30;;
27895;SDS011;15241;48.374;10.876;2022-08-19T01:37:16;3.37;;;2.67;;
27895;SDS011;15241;48.374;10.876;2022-08-19T01:42:14;3.60;;;3.30;;
27895;SDS011;15241;48.374;10.876;2022-08-19T01:47:13;3.75;;;3.35;;
27895;SDS011;15241;48.374;10.876;2022-08-19T01:52:12;5.33;;;3.75;;
27895;SDS011;15241;48.374;10.876;2022-08-19T01:57:12;5.05;;;4.28;;
27895;SDS011;15241;48.374;10.876;2022-08-19T02:02:12;5.28;;;4.33;;
27895;SDS011;15241;48.374;10.876;2022-08-19T02:07:11;6.17;;;5.00;;
27895;SDS011;15241;48.374;10.876;2022-08-19T02:12:10;6.15;;;5.20;;
27895;SDS011;15241;48.374;10.876;2022-08-19T02:17:09;6.35;;;5.75;;
27895;SDS011;15241;48.374;10.876;2022-08-19T02:22:08;7.97;;;6.72;;
27895;SDS011;15241;48.374;10.876;2022-08-19T02:27:07;8.45;;;7.62;;
27895;SDS011;15241;48.374;10.876;2022-08-19T02:32:06;7.53;;;6.70;;
27895;SDS011;15241;48.374;10.876;2022-08-19T02:37:05;8.18;;;7.20;;
27895;SDS011;15241;48.374;10.876;2022-08-19T02:42:04;9.85;;;8.15;;
27895;SDS011;15241;48.374;10.876;2022-08-19T02:47:04;10.70;;;9.63;;
27895;SDS011;15241;48.374;10.876;2022-08-19T02:52:03;15.85;;;10.63;;
27895;SDS011;15241;48.374;10.876;2022-08-19T02:57:03;11.22;;;9.98;;
27895;SDS011;15241;48.374;10.876;2022-08-19T03:02:02;13.88;;;11.48;;
27895;SDS011;15241;48.374;10.876;2022-08-19T03:07:01;18.02;;;13.38;;
27895;SDS011;15241;48.374;10.876;2022-08-19T03:12:00;14.03;;;11.85;;
27895;SDS011;15241;48.374;10.876;2022-08-19T03:16:59;17.62;;;14.95;;
27895;SDS011;15241;48.374;10.876;2022-08-19T03:21:59;18.17;;;13.75;;
27895;SDS011;15241;48.374;10.876;2022-08-19T03:26:58;18.75;;;15.60;;
27895;SDS011;15241;48.374;10.876;2022-08-19T03:31:57;18.75;;;16.75;;
27895;SDS011;15241;48.374;10.876;2022-08-19T03:36:58;19.87;;;16.07;;
27895;SDS011;15241;48.374;10.876;2022-08-19T03:41:58;21.73;;;18.07;;
27895;SDS011;15241;48.374;10.876;2022-08-19T03:46:58;21.00;;;17.30;;
27895;SDS011;15241;48.374;10.876;2022-08-19T03:51:57;23.67;;;18.30;;
27895;SDS011;15241;48.374;10.876;2022-08-19T03:56:57;23.80;;;19.20;;
27895;SDS011;15241;48.374;10.876;2022-08-19T04:01:57;22.25;;;18.20;;
27895;SDS011;15241;48.374;10.876;2022-08-19T04:06:57;22.70;;;18.92;;
27895;SDS011;15241;48.374;10.876;2022-08-19T04:11:56;25.70;;;21.15;;
27895;SDS011;15241;48.374;10.876;2022-08-19T04:16:55;22.15;;;18.10;;
27895;SDS011;15241;48.374;10.876;2022-08-19T04:21:55;24.00;;;19.50;;
27895;SDS011;15241;48.374;10.876;2022-08-19T04:26:54;20.27;;;17.32;;
27895;SDS011;15241;48.374;10.876;2022-08-19T04:31:53;22.00;;;19.05;;
27895;SDS011;15241;48.374;10.876;2022-08-19T04:36:54;22.17;;;18.27;;
27895;SDS011;15241;48.374;10.876;2022-08-19T04:41:54;19.80;;;17.70;;
27895;SDS011;15241;48.374;10.876;2022-08-19T04:46:53;20.55;;;16.97;;
27895;SDS011;15241;48.374;10.876;2022-08-19T04:51:53;22.00;;;17.55;;
27895;SDS011;15241;48.374;10.876;2022-08-19T04:56:52;20.57;;;17.32;;
27895;SDS011;15241;48.374;10.876;2022-08-19T05:01:51;21.07;;;17.30;;
27895;SDS011;15241;48.374;10.876;2022-08-19T05:06:50;18.23;;;16.10;;
27895;SDS011;15241;48.374;10.876;2022-08-19T05:11:49;19.02;;;16.45;;
27895;SDS011;15241;48.374;10.876;2022-08-19T05:16:48;18.02;;;15.85;;
27895;SDS011;15241;48.374;10.876;2022-08-19T05:21:47;19.65;;;17.05;;
27895;SDS011;15241;48.374;10.876;2022-08-19T05:26:47;19.90;;;16.37;;
27895;SDS011;15241;48.374;10.876;2022-08-19T05:31:47;18.50;;;15.68;;
27895;SDS011;15241;48.374;10.876;2022-08-19T05:36:46;19.50;;;16.80;;
27895;SDS011;15241;48.374;10.876;2022-08-19T05:41:48;19.25;;;16.65;;
27895;SDS011;15241;48.374;10.876;2022-08-19T05:46:48;20.35;;;15.45;;
27895;SDS011;15241;48.374;10.876;2022-08-19T05:51:47;25.88;;;16.60;;
27895;SDS011;15241;48.374;10.876;2022-08-19T05:56:47;26.93;;;16.45;;
27895;SDS011;15241;48.374;10.876;2022-08-19T06:01:46;22.40;;;16.95;;
27895;SDS011;15241;48.374;10.876;2022-08-19T06:06:45;21.77;;;16.87;;
27895;SDS011;15241;48.374;10.876;2022-08-19T06:11:45;19.27;;;16.93;;
27895;SDS011;15241;48.374;10.876;2022-08-19T06:16:45;23.27;;;19.00;;
27895;SDS011;15241;48.374;10.876;2022-08-19T06:21:46;22.05;;;17.52;;
27895;SDS011;15241;48.374;10.876;2022-08-19T06:26:47;27.48;;;21.75;;
27895;SDS011;15241;48.374;10.876;2022-08-19T06:31:48;24.63;;;20.72;;
27895;SDS011;15241;48.374;10.876;2022-08-19T06:36:50;27.17;;;20.52;;
27895;SDS011;15241;48.374;10.876;2022-08-19T06:41:50;26.07;;;21.12;;
27895;SDS011;15241;48.374;10.876;2022-08-19T06:46:51;28.15;;;21.40;;
27895;SDS011;15241;48.374;10.876;2022-08-19T06:51:51;27.98;;;20.77;;
27895;SDS011;15241;48.374;10.876;2022-08-19T06:56:50;29.18;;;23.12;;
27895;SDS011;15241;48.374;10.876;2022-08-19T07:01:51;29.18;;;22.50;;
27895;SDS011;15241;48.374;10.876;2022-08-19T07:06:56;31.60;;;23.70;;
27895;SDS011;15241;48.374;10.876;2022-08-19T07:11:56;32.38;;;24.37;;
27895;SDS011;15241;48.374;10.876;2022-08-19T07:16:56;30.15;;;23.62;;
27895;SDS011;15241;48.374;10.876;2022-08-19T07:21:55;32.25;;;23.57;;
27895;SDS011;15241;48.374;10.876;2022-08-19T07:26:56;30.00;;;24.10;;
27895;SDS011;15241;48.374;10.876;2022-08-19T07:31:57;33.58;;;25.80;;
27895;SDS011;15241;48.374;10.876;2022-08-19T07:36:58;32.30;;;25.20;;
27895;SDS011;15241;48.374;10.876;2022-08-19T07:41:57;31.68;;;24.55;;
27895;SDS011;15241;48.374;10.876;2022-08-19T07:46:59;33.05;;;25.72;;
27895;SDS011;15241;48.374;10.876;2022-08-19T07:52:01;33.18;;;24.52;;
27895;SDS011;15241;48.374;10.876;2022-08-19T07:57:02;32.60;;;25.27;;
27895;SDS011;15241;48.374;10.876;2022-08-19T08:02:03;31.77;;;24.50;;
27895;SDS011;15241;48.374;10.876;2022-08-19T08:07:02;32.60;;;24.72;;
27895;SDS011;15241;48.374;10.876;2022-08-19T08:12:10;35.38;;;25.68;;
27895;SDS011;15241;48.374;10.876;2022-08-19T08:17:11;33.28;;;26.35;;
27895;SDS011;15241;48.374;10.876;2022-08-19T08:22:11;34.98;;;25.05;;
27895;SDS011;15241;48.374;10.876;2022-08-19T08:27:12;34.83;;;25.75;;
27895;SDS011;15241;48.374;10.876;2022-08-19T08:32:11;37.10;;;27.10;;
27895;SDS011;15241;48.374;10.876;2022-08-19T08:37:10;37.10;;;26.93;;
27895;SDS011;15241;48.374;10.876;2022-08-19T08:42:11;31.55;;;24.98;;
27895;SDS011;15241;48.374;10.876;2022-08-19T08:47:12;35.17;;;25.32;;
27895;SDS011;15241;48.374;10.876;2022-08-19T08:52:15;32.05;;;25.10;;
27895;SDS011;15241;48.374;10.876;2022-08-19T08:57:17;32.95;;;26.33;;
27895;SDS011;15241;48.374;10.876;2022-08-19T09:02:25;34.25;;;25.88;;
27895;SDS011;15241;48.374;10.876;2022-08-19T09:07:39;37.28;;;27.27;;
27895;SDS011;15241;48.374;10.876;2022-08-19T09:12:31;36.25;;;27.65;;
27895;SDS011;15241;48.374;10.876;2022-08-19T09:17:42;38.78;;;28.15;;
27895;SDS011;15241;48.374;10.876;2022-08-19T09:22:42;37.63;;;27.80;;
27895;SDS011;15241;48.374;10.876;2022-08-19T09:27:41;37.98;;;27.00;;
27895;SDS011;15241;48.374;10.876;2022-08-19T09:32:41;38.53;;;27.52;;
27895;SDS011;15241;48.374;10.876;2022-08-19T09:37:42;34.00;;;26.15;;
27895;SDS011;15241;48.374;10.876;2022-08-19T09:42:41;36.77;;;26.70;;
27895;SDS011;15241;48.374;10.876;2022-08-19T09:47:40;40.95;;;29.37;;
27895;SDS011;15241;48.374;10.876;2022-08-19T09:52:39;36.73;;;27.25;;
27895;SDS011;15241;48.374;10.876;2022-08-19T09:57:38;40.85;;;29.25;;
27895;SDS011;15241;48.374;10.876;2022-08-19T10:02:37;38.10;;;28.80;;
27895;SDS011;15241;48.374;10.876;2022-08-19T10:07:37;38.02;;;26.80;;
27895;SDS011;15241;48.374;10.876;2022-08-19T10:12:36;36.83;;;28.00;;
27895;SDS011;15241;48.374;10.876;2022-08-19T10:17:35;36.98;;;27.35;;
27895;SDS011;15241;48.374;10.876;2022-08-19T10:22:36;34.27;;;26.80;;
27895;SDS011;15241;48.374;10.876;2022-08-19T10:27:38;35.98;;;26.52;;
27895;SDS011;15241;48.374;10.876;2022-08-19T10:32:37;32.85;;;25.65;;
27895;SDS011;15241;48.374;10.876;2022-08-19T10:37:36;35.38;;;26.15;;
27895;SDS011;15241;48.374;10.876;2022-08-19T10:42:36;34.90;;;25.10;;
27895;SDS011;15241;48.374;10.876;2022-08-19T10:47:35;30.27;;;22.37;;
27895;SDS011;15241;48.374;10.876;2022-08-19T10:52:34;33.23;;;24.18;;
27895;SDS011;15241;48.374;10.876;2022-08-19T10:57:33;27.00;;;20.72;;
27895;SDS011;15241;48.374;10.876;2022-08-19T11:02:32;27.80;;;20.30;;
27895;SDS011;15241;48.374;10.876;2022-08-19T11:07:32;28.77;;;21.52;;
27895;SDS011;15241;48.374;10.876;2022-08-19T11:12:31;29.23;;;20.17;;
27895;SDS011;15241;48.374;10.876;2022-08-19T11:17:30;24.98;;;18.77;;
27895;SDS011;15241;48.374;10.876;2022-08-19T11:22:29;15.90;;;11.60;;
27895;SDS011;15241;48.374;10.876;2022-08-19T11:27:28;17.87;;;12.80;;
27895;SDS011;15241;48.374;10.876;2022-08-19T11:32:27;18.02;;;12.93;;
27895;SDS011;15241;48.374;10.876;2022-08-19T11:37:27;11.78;;;9.75;;
27895;SDS011;15241;48.374;10.876;2022-08-19T11:42:26;9.60;;;6.95;;
27895;SDS011;15241;48.374;10.876;2022-08-19T11:47:25;5.80;;;4.55;;
27895;SDS011;15241;48.374;10.876;2022-08-19T11:52:24;6.70;;;4.05;;
27895;SDS011;15241;48.374;10.876;2022-08-19T12:02:29;10.55;;;7.60;;
27895;SDS011;15241;48.374;10.876;2022-08-19T12:11:40;10.23;;;9.05;;
27895;SDS011;15241;48.374;10.876;2022-08-19T12:16:39;10.18;;;9.08;;
27895;SDS011;15241;48.374;10.876;2022-08-19T12:21:38;9.53;;;8.33;;
27895;SDS011;15241;48.374;10.876;2022-08-19T12:26:37;8.43;;;7.37;;
27895;SDS011;15241;48.374;10.876;2022-08-19T12:31:36;6.97;;;6.28;;
27895;SDS011;15241;48.374;10.876;2022-08-19T12:36:37;7.95;;;5.50;;
27895;SDS011;15241;48.374;10.876;2022-08-19T12:41:36;6.72;;;5.75;;
27895;SDS011;15241;48.374;10.876;2022-08-19T12:46:35;5.33;;;4.83;;
27895;SDS011;15241;48.374;10.876;2022-08-19T12:51:34;6.33;;;5.72;;
27895;SDS011;15241;48.374;10.876;2022-08-19T12:56:33;6.30;;;5.72;;
27895;SDS011;15241;48.374;10.876;2022-08-19T13:01:33;7.42;;;5.67;;
27895;SDS011;15241;48.374;10.876;2022-08-19T13:06:32;6.22;;;5.60;;
27895;SDS011;15241;48.374;10.876;2022-08-19T13:11:31;5.95;;;5.35;;
27895;SDS011;15241;48.374;10.876;2022-08-19T13:16:30;5.45;;;4.95;;
27895;SDS011;15241;48.374;10.876;2022-08-19T13:21:29;6.97;;;5.00;;
27895;SDS011;15241;48.374;10.876;2022-08-19T13:26:28;7.62;;;6.40;;
27895;SDS011;15241;48.374;10.876;2022-08-19T13:31:28;6.62;;;6.03;;
27895;SDS011;15241;48.374;10.876;2022-08-19T13:36:28;6.60;;;6.00;;
27895;SDS011;15241;48.374;10.876;2022-08-19T13:41:27;6.92;;;6.33;;
27895;SDS011;15241;48.374;10.876;2022-08-19T13:46:26;6.72;;;6.12;;
27895;SDS011;15241;48.374;10.876;2022-08-19T13:51:25;8.60;;;7.80;;
27895;SDS011;15241;48.374;10.876;2022-08-19T13:56:24;8.75;;;7.92;;
27895;SDS011;15241;48.374;10.876;2022-08-19T14:01:23;10.28;;;9.15;;
27895;SDS011;15241;48.374;10.876;2022-08-19T14:06:22;10.88;;;9.68;;
27895;SDS011;15241;48.374;10.876;2022-08-19T14:11:21;13.18;;;10.80;;
27895;SDS011;15241;48.374;10.876;2022-08-19T14:16:20;12.98;;;11.68;;
27895;SDS011;15241;48.374;10.876;2022-08-19T14:21:21;12.60;;;11.28;;
27895;SDS011;15241;48.374;10.876;2022-08-19T14:26:21;15.35;;;13.75;;
27895;SDS011;15241;48.374;10.876;2022-08-19T14:31:21;14.95;;;12.90;;
27895;SDS011;15241;48.374;10.876;2022-08-19T14:36:20;13.32;;;11.78;;
27895;SDS011;15241;48.374;10.876;2022-08-19T14:41:20;12.58;;;11.28;;
27895;SDS011;15241;48.374;10.876;2022-08-19T14:46:20;11.65;;;10.32;;
27895;SDS011;15241;48.374;10.876;2022-08-19T14:51:21;11.97;;;10.25;;
27895;SDS011;15241;48.374;10.876;2022-08-19T14:56:23;10.85;;;9.70;;
27895;SDS011;15241;48.374;10.876;2022-08-19T15:01:24;10.30;;;9.25;;
27895;SDS011;15241;48.374;10.876;2022-08-19T15:06:24;10.50;;;9.40;;
27895;SDS011;15241;48.374;10.876;2022-08-19T15:11:24;10.35;;;9.23;;
27895;SDS011;15241;48.374;10.876;2022-08-19T15:16:24;8.23;;;7.42;;
27895;SDS011;15241;48.374;10.876;2022-08-19T15:21:24;10.63;;;8.95;;
27895;SDS011;15241;48.374;10.876;2022-08-19T15:26:24;10.45;;;8.93;;
27895;SDS011;15241;48.374;10.876;2022-08-19T15:31:23;9.48;;;8.13;;
27895;SDS011;15241;48.374;10.876;2022-08-19T15:36:22;8.75;;;7.85;;
27895;SDS011;15241;48.374;10.876;2022-08-19T15:41:22;7.87;;;7.08;;
27895;SDS011;15241;48.374;10.876;2022-08-19T15:46:24;6.67;;;5.83;;
27895;SDS011;15241;48.374;10.876;2022-08-19T15:51:25;6.90;;;6.00;;
27895;SDS011;15241;48.374;10.876;2022-08-19T15:56:26;7.37;;;6.58;;
27895;SDS011;15241;48.374;10.876;2022-08-19T16:01:25;6.20;;;5.60;;
27895;SDS011;15241;48.374;10.876;2022-08-19T16:06:24;18.55;;;5.35;;
27895;SDS011;15241;48.374;10.876;2022-08-19T16:11:24;5.35;;;4.58;;
27895;SDS011;15241;48.374;10.876;2022-08-19T16:16:26;6.55;;;5.53;;
27895;SDS011;15241;48.374;10.876;2022-08-19T16:21:27;6.58;;;5.58;;
27895;SDS011;15241;48.374;10.876;2022-08-19T16:26:26;4.53;;;3.92;;
27895;SDS011;15241;48.374;10.876;2022-08-19T16:31:26;5.37;;;4.87;;
27895;SDS011;15241;48.374;10.876;2022-08-19T16:36:25;4.95;;;4.55;;
27895;SDS011;15241;48.374;10.876;2022-08-19T16:41:24;5.75;;;5.12;;
27895;SDS011;15241;48.374;10.876;2022-08-19T16:46:23;8.33;;;5.40;;
27895;SDS011;15241;48.374;10.876;2022-08-19T16:51:22;6.47;;;5.87;;
27895;SDS011;15241;48.374;10.876;2022-08-19T16:56:21;7.95;;;7.17;;
27895;SDS011;15241;48.374;10.876;2022-08-19T17:01:20;8.83;;;7.92;;
27895;SDS011;15241;48.374;10.876;2022-08-19T17:06:21;9.93;;;8.58;;
27895;SDS011;15241;48.374;10.876;2022-08-19T17:11:22;9.75;;;7.95;;
27895;SDS011;15241;48.374;10.876;2022-08-19T17:16:23;9.30;;;8.30;;
27895;SDS011;15241;48.374;10.876;2022-08-19T17:21:24;10.50;;;8.28;;
27895;SDS011;15241;48.374;10.876;2022-08-19T17:26:25;8.68;;;7.78;;
27895;SDS011;15241;48.374;10.876;2022-08-19T17:31:25;9.88;;;7.62;;
27895;SDS011;15241;48.374;10.876;2022-08-19T17:36:26;7.95;;;7.10;;
27895;SDS011;15241;48.374;10.876;2022-08-19T17:41:26;8.65;;;7.35;;
27895;SDS011;15241;48.374;10.876;2022-08-19T17:46:26;8.40;;;7.47;;
27895;SDS011;15241;48.374;10.876;2022-08-19T17:51:36;10.25;;;8.23;;
27895;SDS011;15241;48.374;10.876;2022-08-19T17:56:36;10.75;;;9.28;;
27895;SDS011;15241;48.374;10.876;2022-08-19T18:01:35;9.15;;;8.00;;
27895;SDS011;15241;48.374;10.876;2022-08-19T18:06:34;10.60;;;7.95;;
27895;SDS011;15241;48.374;10.876;2022-08-19T18:11:34;8.93;;;8.03;;
27895;SDS011;15241;48.374;10.876;2022-08-19T18:16:33;8.75;;;7.95;;
27895;SDS011;15241;48.374;10.876;2022-08-19T18:21:31;9.03;;;8.13;;
27895;SDS011;15241;48.374;10.876;2022-08-19T18:26:30;8.85;;;7.53;;
27895;SDS011;15241;48.374;10.876;2022-08-19T18:31:29;8.23;;;7.03;;
27895;SDS011;15241;48.374;10.876;2022-08-19T18:36:28;10.48;;;7.83;;
27895;SDS011;15241;48.374;10.876;2022-08-19T18:41:27;9.70;;;8.70;;
27895;SDS011;15241;48.374;10.876;2022-08-19T18:46:26;11.20;;;8.95;;
27895;SDS011;15241;48.374;10.876;2022-08-19T18:51:25;8.83;;;7.92;;
27895;SDS011;15241;48.374;10.876;2022-08-19T18:56:25;8.65;;;7.45;;
27895;SDS011;15241;48.374;10.876;2022-08-19T19:01:25;11.03;;;7.67;;
27895;SDS011;15241;48.374;10.876;2022-08-19T19:06:26;9.38;;;8.38;;
27895;SDS011;15241;48.374;10.876;2022-08-19T19:11:29;11.37;;;8.30;;
27895;SDS011;15241;48.374;10.876;2022-08-19T19:16:30;8.38;;;7.58;;
27895;SDS011;15241;48.374;10.876;2022-08-19T19:21:29;9.80;;;8.33;;
27895;SDS011;15241;48.374;10.876;2022-08-19T19:26:28;9.93;;;8.70;;
27895;SDS011;15241;48.374;10.876;2022-08-19T19:31:27;11.38;;;9.50;;
27895;SDS011;15241;48.374;10.876;2022-08-19T19:36:26;11.83;;;10.10;;
27895;SDS011;15241;48.374;10.876;2022-08-19T19:41:24;10.40;;;8.83;;
27895;SDS011;15241;48.374;10.876;2022-08-19T19:46:23;9.63;;;8.58;;
27895;SDS011;15241;48.374;10.876;2022-08-19T19:51:23;9.40;;;8.43;;
27895;SDS011;15241;48.374;10.876;2022-08-19T19:56:22;8.63;;;7.72;;
27895;SDS011;15241;48.374;10.876;2022-08-19T20:01:21;10.30;;;9.20;;
27895;SDS011;15241;48.374;10.876;2022-08-19T20:06:20;9.78;;;8.78;;
27895;SDS011;15241;48.374;10.876;2022-08-19T20:11:28;9.65;;;7.92;;
27895;SDS011;15241;48.374;10.876;2022-08-19T20:16:35;9.88;;;8.63;;
27895;SDS011;15241;48.374;10.876;2022-08-19T20:21:35;11.15;;;8.75;;
27895;SDS011;15241;48.374;10.876;2022-08-19T20:26:35;10.23;;;8.98;;
27895;SDS011;15241;48.374;10.876;2022-08-19T20:31:35;9.88;;;8.30;;
27895;SDS011;15241;48.374;10.876;2022-08-19T20:36:34;10.70;;;9.53;;
27895;SDS011;15241;48.374;10.876;2022-08-19T20:41:33;13.15;;;11.48;;
27895;SDS011;15241;48.374;10.876;2022-08-19T20:46:33;11.90;;;10.30;;
27895;SDS011;15241;48.374;10.876;2022-08-19T20:51:32;12.75;;;11.45;;
27895;SDS011;15241;48.374;10.876;2022-08-19T20:56:30;14.93;;;12.70;;
27895;SDS011;15241;48.374;10.876;2022-08-19T21:01:29;13.78;;;11.88;;
27895;SDS011;15241;48.374;10.876;2022-08-19T21:06:29;13.48;;;12.07;;
27895;SDS011;15241;48.374;10.876;2022-08-19T21:11:28;13.45;;;12.05;;
27895;SDS011;15241;48.374;10.876;2022-08-19T21:16:27;14.78;;;13.08;;
27895;SDS011;15241;48.374;10.876;2022-08-19T21:21:26;14.90;;;13.15;;
27895;SDS011;15241;48.374;10.876;2022-08-19T21:26:25;17.60;;;13.95;;
27895;SDS011;15241;48.374;10.876;2022-08-19T21:31:24;16.55;;;14.85;;
27895;SDS011;15241;48.374;10.876;2022-08-19T21:36:23;15.25;;;13.65;;
27895;SDS011;15241;48.374;10.876;2022-08-19T21:41:22;15.05;;;13.43;;
27895;SDS011;15241;48.374;10.876;2022-08-19T21:46:21;15.10;;;13.50;;
27895;SDS011;15241;48.374;10.876;2022-08-19T21:51:20;14.65;;;13.10;;
27895;SDS011;15241;48.374;10.876;2022-08-19T21:56:19;16.12;;;13.18;;
27895;SDS011;15241;48.374;10.876;2022-08-19T22:01:18;15.23;;;13.68;;
27895;SDS011;15241;48.374;10.876;2022-08-19T22:06:17;14.30;;;12.85;;
27895;SDS011;15241;48.374;10.876;2022-08-19T22:11:16;15.78;;;14.15;;
27895;SDS011;15241;48.374;10.876;2022-08-19T22:16:15;15.48;;;13.88;;
27895;SDS011;15241;48.374;10.876;2022-08-19T22:21:14;17.52;;;14.53;;
27895;SDS011;15241;48.374;10.876;2022-08-19T22:26:14;16.52;;;14.60;;
27895;SDS011;15241;48.374;10.876;2022-08-19T22:31:13;16.30;;;14.28;;
27895;SDS011;15241;48.374;10.876;2022-08-19T22:36:12;17.52;;;14.68;;
27895;SDS011;15241;48.374;10.876;2022-08-19T22:41:11;18.52;;;16.25;;
27895;SDS011;15241;48.374;10.876;2022-08-19T22:46:10;23.92;;;17.20;;
27895;SDS011;15241;48.374;10.876;2022-08-19T22:51:09;19.30;;;16.62;;
27895;SDS011;15241;48.374;10.876;2022-08-19T22:56:08;23.55;;;18.77;;
27895;SDS011;15241;48.374;10.876;2022-08-19T23:01:09;21.77;;;17.75;;
27895;SDS011;15241;48.374;10.876;2022-08-19T23:06:09;24.77;;;19.92;;
27895;SDS011;15241;48.374;10.876;2022-08-19T23:11:09;21.52;;;18.37;;
27895;SDS011;15241;48.374;10.876;2022-08-19T23:16:09;23.32;;;19.00;;
27895;SDS011;15241;48.374;10.876;2022-08-19T23:21:08;29.37;;;20.37;;
27895;SDS011;15241;48.374;10.876;2022-08-19T23:26:07;26.57;;;20.12;;
27895;SDS011;15241;48.374;10.876;2022-08-19T23:31:07;27.15;;;21.27;;
27895;SDS011;15241;48.374;10.876;2022-08-19T23:36:07;25.35;;;19.20;;
27895;SDS011;15241;48.374;10.876;2022-08-19T23:41:09;24.82;;;20.32;;
27895;SDS011;15241;48.374;10.876;2022-08-19T23:46:10;25.35;;;20.60;;
27895;SDS011;15241;48.374;10.876;2022-08-19T23:51:10;27.15;;;20.25;;
27895;SDS011;15241;48.374;10.876;2022-08-19T23:56:10;23.85;;;20.10;;
